Time;durP1;ratioP1;P1;durP2;ratioP2;P2;SDS_P1;SDS_P2;PMS_P1;PMS_P2;Temp;Humidity;BMP_temperature;BMP_pressure;BME280_temperature;BME280_humidity;BME280_pressure;Samples;Min_cycle;Max_cycle;Signal;HPM_P1;HPM_P2
2023/07/08 00:01:19;;;;;;;4.68;4.20;;;19.50;99.90;;;-141.84;46.72;21476.66;4889929;29;20326;-74
2023/07/08 00:03:48;;;;;;;5.70;4.68;;;19.50;99.90;;;-141.84;46.95;21509.19;4889042;29;20234;-74
2023/07/08 00:06:22;;;;;;;5.07;4.30;;;19.40;99.90;;;-141.84;47.04;21494.97;4895189;29;20689;-73
2023/07/08 00:08:50;;;;;;;4.65;4.00;;;19.40;99.90;;;-141.84;47.03;21484.78;4928488;28;20268;-74
2023/07/08 00:11:19;;;;;;;5.45;4.40;;;19.30;99.90;;;-141.84;46.96;21523.44;4927023;28;20240;-73
2023/07/08 00:13:48;;;;;;;7.30;4.78;;;19.30;99.90;;;-141.84;47.43;21474.63;4927555;28;20287;-73
2023/07/08 00:16:20;;;;;;;4.90;4.43;;;19.30;99.90;;;-141.84;47.40;21474.63;4910747;28;20284;-73
2023/07/08 00:18:49;;;;;;;5.97;4.00;;;19.30;99.90;;;-141.84;47.31;21509.19;4920099;29;20226;-73
2023/07/08 00:21:19;;;;;;;5.20;4.72;;;19.30;99.90;;;-141.84;47.07;21519.34;4899980;29;20761;-75
2023/07/08 00:23:49;;;;;;;4.75;4.35;;;19.30;99.90;;;-141.84;47.29;21501.06;4909320;29;20568;-74
2023/07/08 00:26:23;;;;;;;4.50;4.10;;;19.30;99.90;;;-141.84;47.41;21456.34;4909907;29;20751;-74
2023/07/08 00:28:52;;;;;;;4.60;4.20;;;19.30;99.90;;;-141.84;47.80;21446.16;4910157;29;20225;-72
2023/07/08 00:31:23;;;;;;;6.13;4.63;;;19.20;99.90;;;-141.84;47.52;21503.09;4891811;29;20235;-74
2023/07/08 00:33:55;;;;;;;4.47;4.10;;;19.20;99.90;;;-141.84;47.50;21476.66;4890830;29;20265;-73
2023/07/08 00:36:28;;;;;;;6.45;4.60;;;19.30;99.90;;;-141.84;48.12;21440.06;4906388;28;20225;-73
2023/07/08 00:38:57;;;;;;;5.00;4.45;;;19.20;99.90;;;-141.84;47.72;21456.34;4913986;28;20218;-74
2023/07/08 00:41:31;;;;;;;6.78;4.22;;;19.20;99.90;;;-141.84;47.98;21454.28;4910483;29;20589;-74
2023/07/08 00:44:01;;;;;;;4.93;4.40;;;19.20;99.90;;;-141.84;48.15;21419.72;4911289;29;20781;-73
2023/07/08 00:46:57;;;;;;;5.15;4.65;;;19.10;99.90;;;-141.84;48.28;21433.97;4903720;29;20318;-74
2023/07/08 00:49:37;;;;;;;4.95;4.45;;;19.10;99.90;;;-141.84;48.65;21399.41;4911404;29;20241;-75
2023/07/08 00:52:24;;;;;;;5.10;4.38;;;19.10;99.90;;;-141.84;48.70;21383.13;4911733;29;20309;-73
2023/07/08 00:54:55;;;;;;;5.60;4.15;;;19.00;99.90;;;-141.84;49.14;21385.16;4908007;29;20536;-73
2023/07/08 00:57:29;;;;;;;4.75;4.10;;;18.90;99.90;;;-141.84;49.41;21346.53;4892575;29;20222;-74
2023/07/08 01:00:03;;;;;;;4.95;4.45;;;18.90;99.90;;;-141.84;49.13;21399.41;4891221;29;20281;-72
2023/07/08 01:02:37;;;;;;;5.95;4.30;;;18.90;99.90;;;-141.84;48.65;21415.66;4884034;29;20245;-74
2023/07/08 01:05:11;;;;;;;4.72;4.28;;;18.90;99.90;;;-141.84;49.23;21393.31;4891202;29;20242;-74
2023/07/08 01:07:45;;;;;;;4.75;4.20;;;18.90;99.90;;;-141.84;49.15;21417.69;4918744;28;20327;-73
2023/07/08 01:10:19;;;;;;;4.93;4.38;;;18.90;99.90;;;-141.84;49.11;21385.16;4930161;28;20315;-72
2023/07/08 01:12:52;;;;;;;6.05;4.53;;;18.90;99.90;;;-141.84;49.65;21364.84;4929080;29;20239;-73
2023/07/08 01:15:24;;;;;;;4.80;4.35;;;18.90;99.90;;;-141.84;49.87;21346.53;4917623;28;20312;-73
2023/07/08 01:17:53;;;;;;;5.47;4.70;;;18.80;99.90;;;-141.84;49.33;21401.44;4923954;29;20301;-74
2023/07/08 01:20:22;;;;;;;6.55;4.38;;;18.80;99.90;;;-141.84;49.36;21372.97;4917507;29;20214;-72
2023/07/08 01:22:51;;;;;;;4.97;4.40;;;18.90;99.90;;;-141.84;48.70;21433.97;4912454;29;20258;-74
2023/07/08 01:25:21;;;;;;;4.25;3.88;;;18.90;99.90;;;-141.84;49.39;21387.19;4913793;28;20789;-73
2023/07/08 01:27:55;;;;;;;5.05;4.43;;;18.90;99.90;;;-141.84;49.52;21387.19;4911218;28;20313;-75
2023/07/08 01:30:23;;;;;;;4.88;4.47;;;18.90;99.90;;;-141.84;49.76;21383.13;4902672;28;20652;-75
2023/07/08 01:33:00;;;;;;;4.90;4.07;;;18.90;99.90;;;-141.84;49.90;21340.44;4911917;28;20242;-74
2023/07/08 01:35:28;;;;;;;5.13;4.65;;;18.80;99.90;;;-141.84;50.05;21344.50;4920967;28;20228;-74
2023/07/08 01:38:02;;;;;;;6.30;4.32;;;18.80;99.90;;;-141.84;49.91;21372.97;4930764;28;20233;-75
2023/07/08 01:40:33;;;;;;;5.22;4.80;;;18.80;99.90;;;-141.84;50.10;21415.66;4922705;28;20243;-74
2023/07/08 01:43:04;;;;;;;5.78;4.93;;;18.80;99.90;;;-141.84;50.09;21330.28;4933213;28;20237;-73
2023/07/08 01:45:42;;;;;;;6.43;4.45;;;18.80;99.90;;;-141.84;50.36;21350.59;4895110;29;20242;-73
2023/07/08 01:48:15;;;;;;;4.75;4.30;;;18.70;99.90;;;-141.84;50.29;21348.56;4896150;29;20305;-74
2023/07/08 01:50:50;;;;;;;5.63;5.13;;;18.70;99.90;;;-141.84;50.67;21285.53;4891493;29;20211;-74
2023/07/08 01:53:28;;;;;;;4.70;4.30;;;18.60;99.90;;;-141.84;50.78;21297.75;4896537;28;20301;-73
2023/07/08 01:55:56;;;;;;;6.05;4.70;;;18.50;99.90;;;-141.84;50.74;21324.19;4893675;29;20276;-75
2023/07/08 01:58:25;;;;;;;5.60;4.75;;;18.50;99.90;;;-141.84;50.73;21358.75;4886358;29;20263;-73
2023/07/08 02:00:54;;;;;;;4.82;4.35;;;18.50;99.90;;;-141.84;51.04;21287.56;4893161;29;20610;-72
2023/07/08 02:03:22;;;;;;;5.00;4.40;;;18.50;99.90;;;-141.84;51.33;21228.63;4890562;29;20321;-74
2023/07/08 02:05:50;;;;;;;7.50;4.57;;;18.40;99.90;;;-141.84;51.26;21291.66;4891043;29;20318;-74
2023/07/08 02:08:21;;;;;;;6.50;4.55;;;18.30;99.90;;;-141.84;51.62;21291.66;4924981;28;20234;-73
2023/07/08 02:10:52;;;;;;;5.38;4.60;;;18.30;99.90;;;-141.84;51.30;21303.84;4928250;28;20233;-74
2023/07/08 02:13:21;;;;;;;5.03;4.32;;;18.30;99.90;;;-141.84;51.80;21236.75;4928092;28;20243;-74
2023/07/08 02:15:49;;;;;;;4.95;4.53;;;18.30;99.90;;;-141.84;52.11;21277.41;4912321;28;20317;-74
2023/07/08 02:18:18;;;;;;;6.45;4.75;;;18.20;99.90;;;-141.84;52.08;21240.81;4889880;29;20646;-73
2023/07/08 02:20:47;;;;;;;5.30;4.65;;;18.20;99.90;;;-141.84;51.92;21248.94;4897462;29;20218;-73
2023/07/08 02:23:16;;;;;;;4.88;4.47;;;18.20;99.90;;;-141.84;52.30;21216.41;4908609;29;20336;-74
2023/07/08 02:25:53;;;;;;;5.20;4.80;;;18.20;99.90;;;-141.84;52.59;21220.47;4908454;28;20238;-75
2023/07/08 02:28:22;;;;;;;5.85;4.95;;;18.10;99.90;;;-141.84;52.87;21192.03;4901374;28;20676;-74
2023/07/08 02:30:50;;;;;;;5.13;4.50;;;18.00;99.90;;;-141.84;52.90;21212.34;4908782;28;20237;-74
2023/07/08 02:33:18;;;;;;;4.70;4.30;;;17.90;99.90;;;-141.84;53.15;21145.25;4908966;28;20694;-74
2023/07/08 02:35:46;;;;;;;5.82;5.05;;;17.90;99.90;;;-141.84;53.19;21173.72;4908319;28;20328;-74
2023/07/08 02:38:15;;;;;;;8.55;4.82;;;17.90;99.90;;;-141.84;53.35;21171.69;4908799;28;20285;-74
2023/07/08 02:40:43;;;;;;;5.28;4.78;;;17.80;99.90;;;-141.84;53.29;21200.16;4903007;28;20289;-73
2023/07/08 02:43:13;;;;;;;8.15;4.97;;;17.80;99.90;;;-141.84;53.39;21183.88;4908870;28;20244;-74
2023/07/08 02:45:41;;;;;;;5.35;4.85;;;17.80;99.90;;;-141.84;53.69;21151.34;4908797;28;20317;-74
2023/07/08 02:48:09;;;;;;;4.95;4.45;;;17.80;99.90;;;-141.84;53.89;21161.53;4906460;28;20210;-74
2023/07/08 02:50:37;;;;;;;5.30;4.80;;;17.70;99.90;;;-141.84;53.97;21161.53;4882768;29;20301;-75
2023/07/08 02:53:05;;;;;;;5.25;4.75;;;17.70;99.90;;;-141.84;54.08;21139.16;4890884;29;20246;-75
2023/07/08 02:55:33;;;;;;;8.40;4.93;;;17.60;99.90;;;-141.84;53.67;21177.78;4890199;29;20690;-74
2023/07/08 02:58:02;;;;;;;5.95;5.35;;;17.60;99.90;;;-141.84;53.85;21185.91;4889881;29;20313;-73
2023/07/08 03:00:31;;;;;;;5.10;4.53;;;17.60;99.90;;;-141.84;54.15;21118.84;4882265;29;20725;-73
2023/07/08 03:02:59;;;;;;;5.55;4.70;;;17.70;99.90;;;-141.84;54.43;21118.84;4889551;29;20289;-75
2023/07/08 03:05:28;;;;;;;5.88;4.82;;;17.60;99.90;;;-141.84;54.21;21141.19;4889721;29;20634;-74
2023/07/08 03:07:56;;;;;;;4.97;4.53;;;17.60;99.90;;;-141.84;54.78;21100.53;4920673;28;20328;-74
2023/07/08 03:10:24;;;;;;;5.50;5.00;;;17.60;99.90;;;-141.84;54.79;21126.97;4920138;28;20265;-74
2023/07/08 03:12:52;;;;;;;5.72;4.82;;;17.50;99.90;;;-141.84;54.55;21122.91;4927283;28;20237;-74
2023/07/08 03:15:20;;;;;;;5.25;4.75;;;17.50;99.90;;;-141.84;54.92;21133.06;4923628;29;20818;-74
2023/07/08 03:17:50;;;;;;;5.78;5.10;;;17.50;99.90;;;-141.84;54.76;21116.78;4893459;29;20293;-75
2023/07/08 03:20:18;;;;;;;5.30;4.80;;;17.50;99.90;;;-141.84;54.84;21114.75;4903167;29;20282;-74
2023/07/08 03:22:46;;;;;;;5.22;4.80;;;17.50;99.90;;;-141.84;55.10;21096.47;4900521;28;20752;-74
2023/07/08 03:25:15;;;;;;;5.93;4.88;;;17.40;99.90;;;-141.84;54.63;21141.19;4909321;28;20317;-73
2023/07/08 03:27:43;;;;;;;5.95;4.82;;;17.50;99.90;;;-141.84;55.07;21122.91;4909344;28;20265;-73
2023/07/08 03:30:12;;;;;;;5.70;4.88;;;17.50;99.90;;;-141.84;55.02;21116.78;4909126;28;20233;-72
2023/07/08 03:32:40;;;;;;;5.35;4.28;;;17.50;99.90;;;-141.84;54.72;21139.16;4901446;28;20690;-75
2023/07/08 03:35:10;;;;;;;4.90;4.50;;;17.50;99.90;;;-141.84;54.75;21163.56;4921889;28;20280;-74
2023/07/08 03:37:38;;;;;;;6.90;4.97;;;17.60;99.90;;;-141.84;54.34;21145.25;4927703;28;20332;-76
2023/07/08 03:40:11;;;;;;;5.30;4.80;;;17.60;99.90;;;-141.84;54.50;21181.84;4927544;28;20501;-75
2023/07/08 03:42:39;;;;;;;6.90;4.78;;;17.60;99.90;;;-141.84;54.46;21171.69;4919595;28;20233;-75
2023/07/08 03:45:08;;;;;;;5.43;4.93;;;17.70;99.90;;;-141.84;54.44;21177.78;4911184;29;20226;-74
2023/07/08 03:47:37;;;;;;;4.85;4.32;;;17.70;99.90;;;-141.84;54.22;21151.34;4909210;29;20293;-73
2023/07/08 03:50:07;;;;;;;5.47;4.97;;;17.70;99.90;;;-141.84;54.72;21204.22;4911064;29;20237;-74
2023/07/08 03:52:36;;;;;;;6.70;5.20;;;17.70;99.90;;;-141.84;54.32;21165.59;4902657;29;20253;-74
2023/07/08 03:55:06;;;;;;;6.97;5.07;;;17.80;99.90;;;-141.84;54.50;21181.84;4909433;29;20240;-74
2023/07/08 03:57:34;;;;;;;6.00;5.40;;;17.80;99.90;;;-141.84;54.50;21165.59;4908290;29;20244;-74
2023/07/08 04:00:03;;;;;;;5.75;4.85;;;17.80;99.90;;;-141.84;54.46;21214.38;4909110;29;20301;-72
2023/07/08 04:02:31;;;;;;;6.07;5.00;;;17.80;99.90;;;-141.84;53.86;21198.13;4902887;29;20692;-73
2023/07/08 04:05:00;;;;;;;8.27;4.60;;;17.90;99.90;;;-141.84;54.55;21190.00;4920323;28;20232;-75
2023/07/08 04:07:28;;;;;;;5.47;4.97;;;17.90;99.90;;;-141.84;54.56;21157.47;4927179;28;20241;-73
2023/07/08 04:09:57;;;;;;;5.88;5.20;;;17.90;99.90;;;-141.84;54.44;21157.47;4927059;28;20288;-73
2023/07/08 04:12:25;;;;;;;5.63;5.13;;;17.90;99.90;;;-141.84;54.68;21185.91;4919628;28;20312;-74
2023/07/08 04:14:54;;;;;;;7.45;5.38;;;17.90;99.90;;;-141.84;54.66;21216.41;4909561;29;20245;-72
2023/07/08 04:17:23;;;;;;;5.70;5.10;;;18.00;99.90;;;-141.84;54.13;21263.19;4897266;29;20310;-74
2023/07/08 04:19:51;;;;;;;6.05;5.45;;;18.00;99.90;;;-141.84;53.77;21232.69;4907209;29;20269;-75
2023/07/08 04:22:19;;;;;;;5.55;5.03;;;18.10;99.90;;;-141.84;53.63;21257.09;4914549;28;20651;-74
2023/07/08 04:24:47;;;;;;;5.80;4.70;;;18.10;99.90;;;-141.84;53.86;21277.41;4936856;28;20319;-73
2023/07/08 04:27:18;;;;;;;4.90;4.40;;;18.20;99.90;;;-141.84;53.95;21240.81;4933788;28;20341;-74
2023/07/08 04:29:46;;;;;;;5.30;4.90;;;18.20;99.90;;;-141.84;53.93;21244.88;4918412;28;20675;-74
2023/07/08 04:32:15;;;;;;;5.75;5.20;;;18.30;99.90;;;-141.84;53.32;21273.34;4906563;29;20268;-74
2023/07/08 04:34:43;;;;;;;6.30;4.60;;;18.30;99.90;;;-141.84;52.93;21305.88;4900889;29;20268;-74
2023/07/08 04:37:16;;;;;;;5.70;4.97;;;18.40;99.90;;;-141.84;53.00;21297.75;4907066;29;20334;-74
2023/07/08 04:39:44;;;;;;;5.50;5.00;;;18.50;99.90;;;-141.84;53.12;21305.88;4907055;29;20257;-73
2023/07/08 04:42:17;;;;;;;5.15;4.72;;;18.50;99.90;;;-141.84;52.94;21295.72;4906891;29;20624;-73
2023/07/08 04:44:46;;;;;;;5.78;5.10;;;18.60;99.90;;;-141.84;52.80;21342.47;4917699;28;20640;-75
2023/07/08 04:47:14;;;;;;;5.53;5.03;;;18.70;99.90;;;-141.84;52.53;21362.81;4925966;28;20324;-74
2023/07/08 04:49:43;;;;;;;6.20;4.90;;;18.80;99.90;;;-141.84;52.08;21372.97;4925783;28;20315;-74
2023/07/08 04:52:12;;;;;;;5.28;4.75;;;18.90;99.90;;;-141.84;51.64;21436.00;4925988;28;20237;-74
2023/07/08 04:54:40;;;;;;;5.38;4.88;;;19.10;99.90;;;-141.84;51.60;21484.78;4918296;28;20340;-74
2023/07/08 04:57:08;;;;;;;5.55;4.72;;;19.30;99.90;;;-141.84;49.14;21826.41;4927266;28;20268;-74
2023/07/08 04:59:37;;;;;;;5.57;4.95;;;20.20;99.90;;;-141.84;43.73;22426.28;4930039;28;20300;-74
2023/07/08 05:02:06;;;;;;;5.03;4.40;;;21.70;99.90;;;-141.84;39.83;22993.75;4929763;28;20364;-75
2023/07/08 05:04:34;;;;;;;5.47;4.57;;;23.50;99.90;;;-141.84;36.79;23547.03;4904950;28;20231;-74
2023/07/08 05:07:03;;;;;;;5.50;4.88;;;25.00;99.90;;;-141.84;34.72;23913.22;4896163;29;20321;-74
2023/07/08 05:09:31;;;;;;;5.32;4.47;;;;;;;-141.84;33.57;24413.75;4902707;29;20271;-74
2023/07/08 05:11:59;;;;;;;4.88;4.07;;;27.40;99.90;;;-141.84;32.52;24782.06;4930633;28;20209;-75
2023/07/08 05:14:27;;;;;;;5.18;4.68;;;28.30;99.90;;;-141.84;31.48;25064.94;4918488;28;20246;-76
2023/07/08 05:16:58;;;;;;;4.90;4.10;;;28.90;99.90;;;-141.84;30.96;25250.13;4919087;28;20332;-74
2023/07/08 05:19:28;;;;;;;4.90;3.95;;;29.30;99.90;;;-141.84;30.69;25463.81;4919199;28;20317;-75
2023/07/08 05:21:56;;;;;;;4.68;4.28;;;29.70;99.90;;;-141.84;29.76;25533.03;4910576;29;20718;-73
2023/07/08 05:24:24;;;;;;;3.85;3.55;;;29.80;99.90;;;-141.84;29.45;25907.53;4902944;29;20714;-74
2023/07/08 05:26:53;;;;;;;5.10;4.45;;;30.00;99.90;;;-141.84;29.53;25931.97;4911501;29;20696;-74
2023/07/08 05:29:21;;;;;;;4.82;4.32;;;30.20;99.90;;;-141.84;29.41;25913.66;4891168;29;20318;-73
2023/07/08 05:31:49;;;;;;;4.93;4.18;;;30.00;99.90;;;-141.84;29.43;25809.84;4891301;29;20265;-74
2023/07/08 05:34:17;;;;;;;4.85;4.43;;;30.10;99.90;;;-141.84;29.88;25494.34;4890681;29;20334;-76
2023/07/08 05:36:47;;;;;;;5.35;4.88;;;29.70;99.90;;;-141.84;29.79;25447.53;4888454;29;20235;-74
2023/07/08 05:39:15;;;;;;;5.38;4.32;;;29.30;99.90;;;-141.84;30.45;25254.19;4891655;29;20210;-75
2023/07/08 05:41:43;;;;;;;5.45;4.20;;;29.30;99.90;;;-141.84;31.32;24936.72;4891689;29;20242;-73
2023/07/08 05:44:11;;;;;;;5.35;4.85;;;28.80;99.90;;;-141.84;32.38;24312.00;4898816;29;20284;-74
2023/07/08 05:46:39;;;;;;;4.82;4.38;;;28.40;99.90;;;-141.84;33.76;23787.09;4901457;28;22317;-73
2023/07/08 05:49:08;;;;;;;4.40;4.10;;;27.70;99.90;;;-141.84;35.29;23355.81;4911485;28;20257;-74
2023/07/08 05:51:37;;;;;;;4.95;4.43;;;26.70;99.90;;;-141.84;36.84;23164.59;4910625;28;20260;-75
2023/07/08 05:54:07;;;;;;;5.50;5.00;;;26.10;99.90;;;-141.84;37.38;22969.34;4910479;28;20293;-74
2023/07/08 05:56:35;;;;;;;5.38;4.53;;;25.60;99.90;;;-141.84;38.43;22847.28;4904153;28;20269;-74
2023/07/08 05:59:04;;;;;;;5.05;4.55;;;25.20;99.90;;;-141.84;39.12;22824.94;4910059;28;20320;-73
2023/07/08 06:01:33;;;;;;;5.80;4.45;;;25.00;99.90;;;-141.84;39.36;22745.59;4908344;28;20578;-73
2023/07/08 06:04:01;;;;;;;5.22;4.50;;;24.90;99.90;;;-141.84;39.75;22737.47;4901362;28;20318;-75
2023/07/08 06:06:30;;;;;;;6.60;4.75;;;24.80;99.90;;;-141.84;40.01;22684.59;4863883;29;20239;-74
2023/07/08 06:09:00;;;;;;;6.63;5.10;;;24.70;99.90;;;-141.84;40.03;22615.44;4871416;29;20278;-75
2023/07/08 06:11:29;;;;;;;4.90;4.50;;;24.40;99.90;;;-141.84;40.48;22658.16;4899558;28;20325;-74
2023/07/08 06:14:00;;;;;;;4.85;4.35;;;24.50;99.90;;;-141.84;40.62;22684.59;4907875;28;20277;-74
2023/07/08 06:16:29;;;;;;;6.13;4.72;;;24.60;99.90;;;-141.84;41.10;22664.25;4887613;28;20229;-75
2023/07/08 06:19:09;;;;;;;4.97;4.07;;;24.70;99.90;;;-141.84;39.92;22692.72;4909396;28;20257;-76
2023/07/08 06:21:38;;;;;;;6.88;4.47;;;24.70;99.90;;;-141.84;39.78;22719.16;4909444;28;20257;-74
2023/07/08 06:24:07;;;;;;;6.32;4.70;;;24.80;99.90;;;-141.84;39.49;22751.69;4908994;28;20297;-75
2023/07/08 06:26:37;;;;;;;4.90;4.03;;;24.80;99.90;;;-141.84;39.46;22798.47;4901803;28;20273;-75
2023/07/08 06:29:05;;;;;;;5.78;4.40;;;24.90;99.90;;;-141.84;39.10;22790.34;4905657;28;20223;-75
2023/07/08 06:31:33;;;;;;;5.45;4.60;;;25.00;99.90;;;-141.84;39.28;22847.28;4889970;29;20722;-74
2023/07/08 06:34:02;;;;;;;6.18;4.45;;;25.10;99.90;;;-141.84;39.03;22849.34;4889409;29;20286;-74
2023/07/08 06:36:31;;;;;;;4.85;4.45;;;25.20;99.90;;;-141.84;38.66;22877.81;4882081;29;20230;-75
2023/07/08 06:38:59;;;;;;;7.35;4.90;;;25.20;99.90;;;-141.84;39.18;22877.81;4889682;29;20346;-75
2023/07/08 06:41:27;;;;;;;5.38;4.70;;;25.30;99.90;;;-141.84;39.49;22908.31;4889770;29;20295;-73
2023/07/08 06:43:57;;;;;;;5.95;4.40;;;25.40;99.90;;;-141.84;38.15;22932.72;4890018;29;20231;-75
2023/07/08 06:46:26;;;;;;;4.95;4.47;;;25.40;99.90;;;-141.84;38.56;22949.00;4893819;29;20240;-74
2023/07/08 06:48:54;;;;;;;6.40;4.70;;;25.50;99.90;;;-141.84;38.15;22926.63;4901536;29;20270;-75
2023/07/08 06:51:23;;;;;;;5.03;4.45;;;25.50;99.90;;;-141.84;38.70;22879.84;4889826;29;20255;-75
2023/07/08 06:53:51;;;;;;;7.38;4.70;;;25.40;99.90;;;-141.84;39.46;22814.75;4889451;29;20301;-75
2023/07/08 06:56:20;;;;;;;6.72;4.63;;;25.30;99.90;;;-141.84;39.49;22800.50;4886740;29;20242;-74
2023/07/08 06:58:48;;;;;;;4.60;4.20;;;25.30;99.90;;;-141.84;39.25;22786.28;4891545;29;20234;-77
2023/07/08 07:01:18;;;;;;;5.90;5.30;;;25.10;99.90;;;-141.84;39.57;22725.25;4891458;29;20486;-73
2023/07/08 07:03:46;;;;;;;4.88;4.47;;;25.00;99.90;;;-141.84;39.52;22692.72;4889656;29;20249;-74
2023/07/08 07:06:14;;;;;;;4.95;4.45;;;24.90;99.90;;;-141.84;39.90;22662.22;4891207;29;20314;-74
2023/07/08 07:08:43;;;;;;;4.82;4.30;;;24.80;99.90;;;-141.84;39.71;22694.75;4887018;29;20290;-73
2023/07/08 07:11:11;;;;;;;5.20;4.50;;;24.80;99.90;;;-141.84;39.42;22780.19;4910035;29;20230;-73
2023/07/08 07:13:39;;;;;;;5.30;4.80;;;24.90;99.90;;;-141.84;39.23;22812.72;4896957;28;20269;-74
2023/07/08 07:16:07;;;;;;;5.00;4.50;;;25.10;99.90;;;-141.84;39.81;22894.06;4893033;29;20238;-73
2023/07/08 07:18:37;;;;;;;5.28;4.15;;;25.20;99.90;;;-141.84;39.26;22885.94;4903759;29;20241;-73
2023/07/08 07:21:05;;;;;;;5.13;4.63;;;25.40;99.90;;;-141.84;38.87;22918.50;4901861;29;20214;-74
2023/07/08 07:23:35;;;;;;;4.53;4.13;;;25.40;99.90;;;-141.84;38.94;22989.69;4911708;29;20690;-75
2023/07/08 07:26:04;;;;;;;5.00;4.50;;;25.60;99.90;;;-141.84;38.55;23060.88;4910881;29;20297;-72
2023/07/08 07:28:32;;;;;;;5.15;4.63;;;25.80;99.90;;;-141.84;38.00;23058.84;4905959;29;20718;-73
2023/07/08 07:31:01;;;;;;;4.50;3.90;;;25.80;99.90;;;-141.84;37.63;23093.41;4892456;29;20242;-74
2023/07/08 07:33:31;;;;;;;5.00;4.50;;;25.90;99.90;;;-141.84;38.11;23030.34;4890322;29;20230;-75
2023/07/08 07:36:01;;;;;;;5.10;4.60;;;25.80;99.90;;;-141.84;38.36;23062.91;4890985;29;20223;-75
2023/07/08 07:38:30;;;;;;;6.63;4.82;;;25.80;99.90;;;-141.84;37.53;23172.75;4882493;29;20219;-75
2023/07/08 07:41:00;;;;;;;5.15;4.53;;;26.00;99.90;;;-141.84;37.50;23154.44;4886824;29;20273;-77
2023/07/08 07:43:28;;;;;;;6.60;4.43;;;26.00;99.90;;;-141.84;36.78;23245.97;4900192;29;20239;-75
2023/07/08 07:45:56;;;;;;;7.75;4.70;;;26.20;99.90;;;-141.84;37.26;23142.22;4898434;28;20230;-78
2023/07/08 07:48:25;;;;;;;6.10;4.72;;;26.10;99.90;;;-141.84;37.50;23182.91;4880903;29;20647;-74
2023/07/08 07:50:54;;;;;;;5.38;4.88;;;26.10;99.90;;;-141.84;37.30;23119.84;4888083;29;20579;-75
2023/07/08 07:53:23;;;;;;;4.68;4.28;;;26.20;99.90;;;-141.84;37.22;23243.94;4907586;29;20325;-74
2023/07/08 07:55:58;;;;;;;5.05;4.25;;;26.30;99.90;;;-141.84;37.05;23217.50;4890097;29;20286;-76
2023/07/08 07:58:27;;;;;;;5.63;4.47;;;26.30;99.90;;;-141.84;37.21;23186.97;4881646;29;20818;-76
2023/07/08 08:00:55;;;;;;;8.52;4.80;;;26.30;99.90;;;-141.84;37.44;23221.56;4888799;29;20329;-74
2023/07/08 08:03:24;;;;;;;6.05;4.55;;;26.40;99.90;;;-141.84;37.25;23193.09;4891924;29;20257;-76
2023/07/08 08:05:52;;;;;;;7.03;5.00;;;26.40;99.90;;;-141.84;37.43;23144.25;4907339;29;20225;-74
2023/07/08 08:08:22;;;;;;;5.15;4.65;;;26.30;99.90;;;-141.84;37.94;23150.38;4908284;28;20225;-72
2023/07/08 08:10:51;;;;;;;5.00;4.60;;;26.20;99.90;;;-141.84;37.83;23170.72;4897499;28;20245;-74
2023/07/08 08:13:20;;;;;;;5.00;4.45;;;26.20;99.90;;;-141.84;37.79;23178.84;4907263;29;20781;-75
2023/07/08 08:15:48;;;;;;;5.35;4.50;;;26.20;99.90;;;-141.84;37.60;23152.41;4891461;29;20249;-75
2023/07/08 08:18:16;;;;;;;4.93;4.53;;;26.20;99.90;;;-141.84;37.68;23132.06;4907240;29;20297;-75
2023/07/08 08:20:44;;;;;;;6.50;4.57;;;26.30;99.90;;;-141.84;37.73;23160.53;4896880;29;20219;-75
2023/07/08 08:23:12;;;;;;;5.05;4.50;;;26.10;99.90;;;-141.84;37.81;23097.47;4888573;29;20334;-74
2023/07/08 08:25:41;;;;;;;5.50;4.03;;;26.10;99.90;;;-141.84;37.28;23174.78;4886811;29;20321;-76
2023/07/08 08:28:10;;;;;;;5.03;4.38;;;26.20;99.90;;;-141.84;36.97;23170.72;4888407;29;20266;-75
2023/07/08 08:30:38;;;;;;;6.25;4.20;;;26.10;99.90;;;-141.84;36.95;23056.81;4880847;29;20282;-76
2023/07/08 08:33:07;;;;;;;4.43;4.00;;;26.00;99.90;;;-141.84;37.41;23079.19;4888670;29;20232;-74
2023/07/08 08:35:35;;;;;;;4.50;4.10;;;26.00;99.90;;;-141.84;37.51;23071.03;4872478;29;20223;-75
2023/07/08 08:38:04;;;;;;;4.90;4.40;;;26.00;99.90;;;-141.84;37.31;23111.72;4869135;29;20283;-74
2023/07/08 08:40:33;;;;;;;6.38;4.57;;;26.10;99.90;;;-141.84;36.93;23184.94;4861379;29;20239;-75
2023/07/08 08:43:06;;;;;;;5.50;4.07;;;26.20;99.90;;;-141.84;36.34;23237.84;4869168;29;20231;-75
2023/07/08 08:45:48;;;;;;;4.63;4.20;;;26.30;99.90;;;-141.84;36.15;23243.94;4887322;29;20234;-75
2023/07/08 08:48:20;;;;;;;5.13;4.63;;;26.40;99.90;;;-141.84;36.22;23231.72;4887635;29;20277;-76
2023/07/08 08:50:56;;;;;;;4.50;4.10;;;26.50;99.90;;;-141.84;35.90;23343.63;4888117;29;20245;-75
2023/07/08 08:53:27;;;;;;;5.22;4.50;;;26.60;99.90;;;-141.84;35.58;23341.56;4888405;29;20611;-75
2023/07/08 08:56:04;;;;;;;5.53;4.55;;;26.70;99.90;;;-141.84;35.51;23380.22;4887568;29;20266;-75
2023/07/08 08:58:44;;;;;;;5.45;4.50;;;26.80;99.90;;;-141.84;35.67;23353.78;4880158;29;20234;-74
2023/07/08 09:01:17;;;;;;;4.95;4.10;;;26.80;99.90;;;-141.84;36.07;23296.81;4886113;29;20270;-76
2023/07/08 09:03:53;;;;;;;4.78;4.32;;;26.80;99.90;;;-141.84;36.01;23300.91;4886375;29;20233;-75
2023/07/08 09:06:27;;;;;;;5.03;4.30;;;26.70;99.90;;;-141.84;35.02;23418.88;4882834;29;20718;-69
2023/07/08 09:09:03;;;;;;;5.35;4.75;;;26.80;99.90;;;-141.84;34.90;23469.72;4904676;28;20214;-70
2023/07/08 09:11:46;;;;;;;4.72;4.30;;;27.00;99.90;;;-141.84;34.28;23547.03;4888101;29;20222;-71
2023/07/08 09:14:22;;;;;;;4.85;3.95;;;27.10;99.90;;;-141.84;34.51;23599.94;4884607;29;20278;-72
2023/07/08 09:17:10;;;;;;;8.15;5.80;;;27.30;99.90;;;-141.84;34.23;23652.81;4880683;29;20318;-72
2023/07/08 09:19:44;;;;;;;5.00;4.60;;;27.50;99.90;;;-141.84;33.76;23728.09;4899575;28;20597;-74
2023/07/08 09:22:22;;;;;;;5.80;4.60;;;27.70;99.90;;;-141.84;32.72;23766.75;4904676;29;20312;-76
2023/07/08 09:24:57;;;;;;;5.18;4.55;;;27.80;99.90;;;-141.84;32.23;23835.91;4905345;29;20785;-76
2023/07/08 09:27:25;;;;;;;5.43;4.28;;;27.90;99.90;;;-141.84;32.47;23770.81;4905921;29;20304;-69
2023/07/08 09:29:54;;;;;;;4.63;4.13;;;28.00;99.90;;;-141.84;32.42;23742.34;4905448;29;20226;-70
2023/07/08 09:32:28;;;;;;;5.25;4.60;;;27.90;99.90;;;-141.84;32.87;23663.00;4897615;29;20276;-69
2023/07/08 09:35:05;;;;;;;5.82;4.82;;;27.80;99.90;;;-141.84;33.31;23658.94;4898294;29;20229;-69
2023/07/08 09:37:36;;;;;;;4.75;4.35;;;27.60;99.90;;;-141.84;33.56;23610.09;4905223;29;20253;-69
2023/07/08 09:40:17;;;;;;;7.00;4.32;;;27.60;99.90;;;-141.84;33.79;23565.34;4905720;29;20222;-70
2023/07/08 09:42:52;;;;;;;5.28;4.45;;;27.50;99.90;;;-141.84;33.62;23530.75;4902985;29;20233;-69
2023/07/08 09:45:24;;;;;;;4.88;4.45;;;27.50;99.90;;;-141.84;33.67;23565.34;4907565;29;20249;-69
2023/07/08 09:47:57;;;;;;;5.05;4.10;;;27.40;99.90;;;-141.84;33.40;23652.81;4909080;29;20245;-70
2023/07/08 09:50:29;;;;;;;6.32;4.38;;;27.50;99.90;;;-141.84;33.18;23726.06;4901387;29;20226;-68
2023/07/08 09:53:01;;;;;;;4.93;4.50;;;27.70;99.90;;;-141.84;32.88;23811.50;4908849;29;20237;-70
2023/07/08 09:55:29;;;;;;;5.10;4.45;;;27.90;99.90;;;-141.84;32.89;23864.41;4908446;28;20706;-70
2023/07/08 09:58:01;;;;;;;5.18;4.70;;;28.00;99.90;;;-141.84;32.75;23876.59;4908893;29;20222;-68
2023/07/08 10:00:39;;;;;;;4.82;4.40;;;28.10;99.90;;;-141.84;32.46;24008.84;4901658;29;20610;-68
2023/07/08 10:03:20;;;;;;;4.90;4.47;;;28.30;99.90;;;-141.84;32.34;24055.66;4907614;29;20217;-69
2023/07/08 10:05:51;;;;;;;6.53;4.35;;;28.40;99.90;;;-141.84;32.17;24069.88;4903972;29;20683;-68
2023/07/08 10:08:23;;;;;;;4.57;4.18;;;28.40;99.90;;;-141.84;31.79;24092.28;4905861;29;20321;-67
2023/07/08 10:11:01;;;;;;;5.32;4.68;;;28.60;99.90;;;-141.84;31.96;24159.41;4904821;28;20841;-67
2023/07/08 10:13:40;;;;;;;5.03;4.53;;;28.80;99.90;;;-141.84;31.80;24259.09;4909483;29;20233;-69
2023/07/08 10:16:16;;;;;;;6.60;4.93;;;28.90;99.90;;;-141.84;31.83;24267.25;4906902;29;20698;-68
2023/07/08 10:18:45;;;;;;;5.63;4.50;;;29.00;99.90;;;-141.84;32.01;24320.16;4901930;29;20735;-68